Time;durP1;ratioP1;P1;durP2;ratioP2;P2;SDS_P1;SDS_P2;PMS_P1;PMS_P2;Temp;Humidity;BMP_temperature;BMP_pressure;BME280_temperature;BME280_humidity;BME280_pressure;Samples;Min_cycle;Max_cycle;Signal;HPM_P1;HPM_P2
2022/06/21 00:01:17;;;;;;;2.47;1.63;;;14.50;56.90;;;;;;4868003;29;20678;-79
2022/06/21 00:03:46;;;;;;;2.03;1.83;;;14.50;56.90;;;;;;4868260;29;20200;-79
2022/06/21 00:06:17;;;;;;;2.58;2.38;;;14.30;56.90;;;;;;4877661;29;20461;-80
2022/06/21 00:08:43;;;;;;;2.22;1.88;;;14.30;57.30;;;;;;4880675;29;20308;-80
2022/06/21 00:11:19;;;;;;;1.65;1.55;;;14.30;57.50;;;;;;4879927;29;20208;-80
2022/06/21 00:13:45;;;;;;;4.03;1.73;;;14.20;58.10;;;;;;4879752;29;20229;-82
2022/06/21 00:16:15;;;;;;;3.28;1.60;;;14.20;58.50;;;;;;4880548;29;20250;-80
2022/06/21 00:18:44;;;;;;;1.67;1.58;;;14.20;58.70;;;;;;4880743;29;20268;-82
2022/06/21 00:21:13;;;;;;;2.17;2.00;;;14.20;59.60;;;;;;4879720;29;20244;-80
2022/06/21 00:23:42;;;;;;;2.13;1.98;;;14.10;59.60;;;;;;4878055;29;20219;-81
2022/06/21 00:26:12;;;;;;;2.00;1.60;;;14.10;58.70;;;;;;4876693;29;20213;-80
2022/06/21 00:28:39;;;;;;;2.08;1.60;;;14.10;59.40;;;;;;4879777;29;20222;-79
2022/06/21 00:31:10;;;;;;;1.83;1.73;;;14.10;59.70;;;;;;4878721;29;20277;-80
2022/06/21 00:33:37;;;;;;;3.72;1.83;;;14.10;59.40;;;;;;4869426;29;20217;-80
2022/06/21 00:36:18;;;;;;;1.70;1.60;;;14.00;60.00;;;;;;4868230;29;20217;-80
2022/06/21 00:38:46;;;;;;;2.50;1.95;;;14.00;60.30;;;;;;4868689;29;20266;-81
2022/06/21 00:41:15;;;;;;;2.75;2.15;;;13.90;60.90;;;;;;4869304;29;20234;-80
2022/06/21 00:43:46;;;;;;;2.65;2.00;;;13.90;62.20;;;;;;4869951;29;20217;-81
2022/06/21 00:46:31;;;;;;;1.95;1.85;;;13.80;62.10;;;;;;4869443;29;20700;-80
2022/06/21 00:49:01;;;;;;;2.15;2.00;;;13.80;62.10;;;;;;4869925;29;20335;-80
2022/06/21 00:51:35;;;;;;;1.90;1.80;;;13.70;62.30;;;;;;4868559;29;20209;-79
2022/06/21 00:54:11;;;;;;;2.38;2.10;;;13.60;63.30;;;;;;4869556;29;20293;-79
2022/06/21 00:56:42;;;;;;;1.60;1.50;;;13.60;63.90;;;;;;4875260;29;20433;-81
2022/06/21 00:59:17;;;;;;;2.00;1.90;;;13.60;64.00;;;;;;4885145;29;20241;-83
2022/06/21 01:01:45;;;;;;;3.80;2.25;;;13.60;64.50;;;;;;4876491;29;20209;-79
2022/06/21 01:04:15;;;;;;;1.92;1.83;;;13.60;64.70;;;;;;4884767;29;20216;-79
2022/06/21 01:06:45;;;;;;;1.92;1.83;;;13.50;64.70;;;;;;4879053;29;20545;-81
2022/06/21 01:09:17;;;;;;;1.70;1.60;;;13.50;64.80;;;;;;4880383;29;20372;-82
2022/06/21 01:11:49;;;;;;;3.55;1.67;;;13.50;65.60;;;;;;4884734;29;20247;-81
2022/06/21 01:14:21;;;;;;;2.17;2.08;;;13.50;64.70;;;;;;4884973;29;20240;-79
2022/06/21 01:16:49;;;;;;;2.10;1.90;;;13.50;64.90;;;;;;4884959;29;20202;-80
2022/06/21 01:19:24;;;;;;;2.10;2.00;;;13.50;65.40;;;;;;4884789;29;20268;-80
2022/06/21 01:21:54;;;;;;;2.75;2.42;;;13.40;65.40;;;;;;4880445;29;20680;-81
2022/06/21 01:24:30;;;;;;;2.20;2.10;;;13.40;66.20;;;;;;4872032;29;20248;-80
2022/06/21 01:27:01;;;;;;;2.53;2.00;;;13.40;66.50;;;;;;4876217;29;20209;-80
2022/06/21 01:29:32;;;;;;;2.00;1.90;;;13.30;66.90;;;;;;4884443;29;20252;-79
2022/06/21 01:32:04;;;;;;;4.15;1.90;;;13.30;66.90;;;;;;4884450;29;20220;-78
2022/06/21 01:34:32;;;;;;;3.40;2.10;;;13.30;67.00;;;;;;4884580;29;20308;-79
2022/06/21 01:37:05;;;;;;;1.77;1.67;;;13.10;68.10;;;;;;4872649;29;20209;-79
2022/06/21 01:39:50;;;;;;;3.13;2.30;;;13.10;68.80;;;;;;4867634;29;20773;-78
2022/06/21 01:42:22;;;;;;;2.40;1.77;;;13.00;68.90;;;;;;4867036;29;20300;-79
2022/06/21 01:44:52;;;;;;;2.65;2.10;;;13.00;68.50;;;;;;4866471;29;20193;-79
2022/06/21 01:47:23;;;;;;;1.95;1.85;;;13.00;68.50;;;;;;4866146;29;20213;-79
2022/06/21 01:49:57;;;;;;;1.67;1.40;;;13.00;68.70;;;;;;4865666;29;20241;-79
2022/06/21 01:52:27;;;;;;;2.10;1.90;;;12.90;69.00;;;;;;4866183;29;20223;-79
2022/06/21 01:54:59;;;;;;;2.60;2.00;;;13.00;68.60;;;;;;4865710;29;20320;-79
2022/06/21 01:57:28;;;;;;;2.28;2.10;;;12.90;68.30;;;;;;4866915;29;20209;-80
2022/06/21 01:59:58;;;;;;;2.88;2.13;;;12.90;68.30;;;;;;4866923;29;20251;-80
2022/06/21 02:02:31;;;;;;;1.52;1.42;;;12.90;68.30;;;;;;4867314;29;20577;-79
2022/06/21 02:05:02;;;;;;;2.08;1.98;;;12.90;68.20;;;;;;4870535;29;20238;-79
2022/06/21 02:07:35;;;;;;;1.63;1.52;;;12.90;68.60;;;;;;4869843;29;20201;-79
2022/06/21 02:10:09;;;;;;;2.00;1.90;;;12.90;68.20;;;;;;4871040;29;20239;-78
2022/06/21 02:12:40;;;;;;;2.40;1.73;;;12.90;68.10;;;;;;4871667;29;20213;-79
2022/06/21 02:15:12;;;;;;;2.60;2.25;;;12.90;67.90;;;;;;4872313;29;20240;-79
2022/06/21 02:17:44;;;;;;;2.90;1.67;;;12.90;67.30;;;;;;4867392;29;20213;-79
2022/06/21 02:20:19;;;;;;;1.73;1.63;;;13.00;66.90;;;;;;4913663;23;20248;-75
2022/06/21 02:22:46;;;;;;;1.98;1.80;;;12.90;66.80;;;;;;4879965;29;20207;-77
2022/06/21 02:25:18;;;;;;;2.13;1.90;;;12.90;67.30;;;;;;4880432;29;20212;-76
2022/06/21 02:27:46;;;;;;;1.85;1.75;;;12.90;67.00;;;;;;4879808;29;20222;-75
2022/06/21 02:30:17;;;;;;;2.38;1.85;;;12.90;66.60;;;;;;4864083;29;20411;-76
2022/06/21 02:32:44;;;;;;;3.65;1.80;;;12.90;66.40;;;;;;4861507;29;20213;-75
2022/06/21 02:35:21;;;;;;;1.73;1.63;;;12.90;66.30;;;;;;4861326;29;20239;-77
2022/06/21 02:37:51;;;;;;;1.60;1.50;;;12.90;65.80;;;;;;4861966;29;20238;-76
2022/06/21 02:40:22;;;;;;;2.20;2.00;;;12.80;66.30;;;;;;4861352;29;20646;-76
2022/06/21 02:42:53;;;;;;;2.13;1.90;;;12.80;65.80;;;;;;4861320;29;20213;-76
2022/06/21 02:45:25;;;;;;;1.90;1.65;;;12.70;65.70;;;;;;4861384;29;20236;-75
2022/06/21 02:47:54;;;;;;;3.05;1.80;;;12.70;65.90;;;;;;4861620;29;20262;-77
2022/06/21 02:50:34;;;;;;;3.65;1.77;;;12.70;65.60;;;;;;4861289;29;20243;-76
2022/06/21 02:53:05;;;;;;;3.42;1.80;;;12.70;65.90;;;;;;4861827;29;20197;-76
2022/06/21 02:55:40;;;;;;;4.20;1.90;;;12.70;65.90;;;;;;4862722;29;20219;-76
2022/06/21 02:58:15;;;;;;;4.40;2.17;;;12.70;65.10;;;;;;4861328;29;20712;-76
2022/06/21 03:00:43;;;;;;;2.28;1.65;;;12.70;65.20;;;;;;4861652;29;20224;-76
2022/06/21 03:03:16;;;;;;;2.50;2.30;;;12.80;64.10;;;;;;4861510;29;20224;-75
2022/06/21 03:05:43;;;;;;;2.22;1.98;;;12.80;64.10;;;;;;4861290;29;20627;-76
2022/06/21 03:08:11;;;;;;;1.77;1.65;;;12.90;63.90;;;;;;4861268;29;20217;-76
2022/06/21 03:10:42;;;;;;;2.22;2.00;;;12.80;63.90;;;;;;4860671;29;20237;-76
2022/06/21 03:13:14;;;;;;;2.63;1.85;;;12.80;64.10;;;;;;4861468;29;20220;-76
2022/06/21 03:15:44;;;;;;;2.05;1.95;;;12.80;64.20;;;;;;4861519;29;20227;-76
2022/06/21 03:18:14;;;;;;;1.92;1.83;;;12.80;64.30;;;;;;4863346;29;20217;-76
2022/06/21 03:20:42;;;;;;;3.05;2.03;;;12.80;64.20;;;;;;4864683;29;20750;-75
2022/06/21 03:23:14;;;;;;;2.47;1.83;;;12.80;64.30;;;;;;4865226;29;20303;-75
2022/06/21 03:25:45;;;;;;;2.20;2.00;;;12.80;64.20;;;;;;4864744;29;20682;-75
2022/06/21 03:28:30;;;;;;;2.30;2.10;;;12.80;64.50;;;;;;4865311;29;20685;-75
2022/06/21 03:31:04;;;;;;;2.28;2.03;;;12.90;64.40;;;;;;4865337;29;20211;-76
2022/06/21 03:33:32;;;;;;;2.00;1.85;;;12.90;64.10;;;;;;4865517;29;20233;-75
2022/06/21 03:36:01;;;;;;;2.72;2.50;;;12.90;62.90;;;;;;4871113;29;20256;-75
2022/06/21 03:38:28;;;;;;;2.30;2.10;;;13.00;62.20;;;;;;4869769;29;20225;-77
2022/06/21 03:43:47;;;;;;;2.80;2.17;;;13.10;61.50;;;;;;4877499;29;20215;-75
2022/06/21 03:46:18;;;;;;;2.35;2.10;;;13.10;61.50;;;;;;4875429;29;20743;-75
2022/06/21 03:48:53;;;;;;;2.75;2.08;;;13.10;61.50;;;;;;4877021;29;20233;-75
2022/06/21 03:51:25;;;;;;;1.80;1.70;;;13.10;61.50;;;;;;4879557;29;20212;-75
2022/06/21 03:53:56;;;;;;;2.08;1.98;;;13.10;61.50;;;;;;4883109;29;20222;-76
2022/06/21 03:56:29;;;;;;;2.10;1.85;;;13.20;61.60;;;;;;4884230;29;20260;-76
2022/06/21 03:59:03;;;;;;;3.03;2.25;;;13.20;61.60;;;;;;4876307;29;20296;-75
2022/06/21 04:01:34;;;;;;;4.65;2.03;;;13.30;60.30;;;;;;4872297;29;20295;-75
2022/06/21 04:04:10;;;;;;;4.10;1.83;;;13.40;60.50;;;;;;4873749;29;20681;-77
2022/06/21 04:06:43;;;;;;;3.25;2.25;;;13.40;59.50;;;;;;4881072;29;20281;-76
2022/06/21 04:09:19;;;;;;;1.75;1.65;;;13.50;59.50;;;;;;4870564;29;20243;-76
2022/06/21 04:11:53;;;;;;;3.90;2.03;;;13.50;59.00;;;;;;4871275;29;20217;-76
2022/06/21 04:14:28;;;;;;;2.05;1.65;;;13.60;59.10;;;;;;4865634;29;20225;-77
2022/06/21 04:17:01;;;;;;;1.90;1.80;;;13.70;58.00;;;;;;4864474;29;20276;-77
2022/06/21 04:19:34;;;;;;;1.77;1.67;;;13.80;57.50;;;;;;4863836;29;20306;-77
2022/06/21 04:22:07;;;;;;;3.08;2.05;;;13.90;57.30;;;;;;4865065;29;20215;-76
2022/06/21 04:24:41;;;;;;;2.10;1.88;;;13.90;57.60;;;;;;4864868;29;20300;-75
2022/06/21 04:27:16;;;;;;;2.13;1.95;;;14.00;56.30;;;;;;4864770;29;20279;-75
2022/06/21 04:29:50;;;;;;;3.95;2.30;;;14.00;56.20;;;;;;4864956;29;20323;-75
2022/06/21 04:32:23;;;;;;;3.97;2.13;;;14.10;54.80;;;;;;4872007;29;20280;-76
2022/06/21 04:34:57;;;;;;;1.80;1.70;;;14.20;53.90;;;;;;4859902;29;20226;-80
2022/06/21 04:37:27;;;;;;;2.80;1.90;;;14.40;53.30;;;;;;4864552;29;20209;-79
2022/06/21 04:39:59;;;;;;;2.40;2.20;;;14.40;53.30;;;;;;4863190;29;20222;-79
2022/06/21 04:42:31;;;;;;;1.85;1.75;;;14.40;53.30;;;;;;4858528;29;20281;-78
2022/06/21 04:45:04;;;;;;;2.60;1.98;;;14.50;53.40;;;;;;4856934;29;20247;-79
2022/06/21 04:47:39;;;;;;;2.22;2.00;;;14.60;52.90;;;;;;4859520;29;20669;-80
2022/06/21 04:50:20;;;;;;;1.90;1.80;;;14.60;52.60;;;;;;4851287;29;20244;-80
2022/06/21 04:52:53;;;;;;;1.88;1.77;;;14.50;53.00;;;;;;4848919;29;20202;-80
2022/06/21 04:55:24;;;;;;;2.20;1.67;;;14.40;53.30;;;;;;4847822;29;20221;-79
2022/06/21 04:57:51;;;;;;;3.15;2.25;;;14.50;53.30;;;;;;4848170;29;20233;-79
2022/06/21 05:00:21;;;;;;;2.50;2.00;;;14.60;52.90;;;;;;4848422;29;20718;-78
2022/06/21 05:02:52;;;;;;;2.60;2.10;;;14.90;50.60;;;;;;4848755;29;20218;-79
2022/06/21 05:05:23;;;;;;;2.38;1.73;;;15.20;50.00;;;;;;4847564;29;20258;-77
2022/06/21 05:07:51;;;;;;;2.97;1.83;;;15.80;47.60;;;;;;4845706;29;20574;-78
2022/06/21 05:10:24;;;;;;;3.30;1.87;;;16.40;46.30;;;;;;4845554;29;20494;-77
2022/06/21 05:12:54;;;;;;;1.60;1.50;;;16.80;44.80;;;;;;4845690;29;20463;-78
2022/06/21 05:15:25;;;;;;;2.30;1.60;;;17.00;43.30;;;;;;4845858;29;20469;-77
2022/06/21 05:17:56;;;;;;;3.47;2.23;;;17.50;42.60;;;;;;4846107;29;20478;-78
2022/06/21 05:20:29;;;;;;;4.30;1.87;;;17.90;41.00;;;;;;4845130;29;20999;-78
2022/06/21 05:23:01;;;;;;;3.13;2.03;;;18.30;40.00;;;;;;4845063;29;20433;-78
2022/06/21 05:25:33;;;;;;;1.83;1.67;;;18.60;38.40;;;;;;4844986;29;20960;-77
2022/06/21 05:28:14;;;;;;;2.50;1.87;;;18.80;37.70;;;;;;4844760;29;20879;-77
2022/06/21 05:30:46;;;;;;;3.80;1.60;;;18.70;38.00;;;;;;4845390;29;20451;-78
2022/06/21 05:33:18;;;;;;;2.53;1.63;;;18.80;37.70;;;;;;4845472;29;20471;-79
2022/06/21 05:35:45;;;;;;;1.97;1.77;;;18.10;38.40;;;;;;4845393;29;20680;-78
2022/06/21 05:38:17;;;;;;;3.40;2.53;;;18.20;38.40;;;;;;4845443;29;20463;-78
2022/06/21 05:40:49;;;;;;;2.33;1.50;;;18.20;39.10;;;;;;4844001;29;20451;-77
2022/06/21 05:43:19;;;;;;;4.97;1.67;;;17.70;40.30;;;;;;4844547;29;20471;-78
2022/06/21 05:45:53;;;;;;;5.17;2.30;;;17.90;39.00;;;;;;4854581;29;20430;-79
2022/06/21 05:48:24;;;;;;;5.20;2.13;;;18.20;38.50;;;;;;4850105;29;20475;-78
2022/06/21 05:50:52;;;;;;;1.83;1.60;;;18.60;37.50;;;;;;4850743;29;20460;-79
2022/06/21 05:53:26;;;;;;;2.73;1.80;;;18.60;37.50;;;;;;4851706;29;20449;-79
2022/06/21 05:55:54;;;;;;;2.40;1.80;;;18.70;38.30;;;;;;4857087;29;20572;-79
2022/06/21 05:58:25;;;;;;;2.93;1.60;;;18.90;36.90;;;;;;4851798;29;20459;-78
2022/06/21 06:00:58;;;;;;;3.13;2.13;;;18.40;37.30;;;;;;4851128;29;20446;-79
2022/06/21 06:03:30;;;;;;;2.20;2.00;;;17.90;38.60;;;;;;4858859;29;20532;-78
2022/06/21 06:05:58;;;;;;;13.73;2.27;;;18.00;38.70;;;;;;4852802;29;20490;-78
2022/06/21 06:08:28;;;;;;;2.80;1.70;;;18.20;37.60;;;;;;4848459;29;20456;-78
2022/06/21 06:10:56;;;;;;;1.90;1.53;;;18.50;37.40;;;;;;4850977;29;20534;-79
2022/06/21 06:13:29;;;;;;;2.40;1.60;;;18.60;37.50;;;;;;4852885;29;20501;-78
2022/06/21 06:16:00;;;;;;;1.97;1.47;;;18.60;37.50;;;;;;4852712;29;20530;-79
2022/06/21 06:18:36;;;;;;;5.73;1.50;;;18.80;37.70;;;;;;4855009;29;20414;-78
2022/06/21 06:21:07;;;;;;;3.77;2.13;;;19.30;36.10;;;;;;4855209;29;20467;-77
2022/06/21 06:23:39;;;;;;;4.90;2.20;;;19.70;34.60;;;;;;4853084;29;20574;-80
2022/06/21 06:26:11;;;;;;;1.90;1.80;;;19.60;34.60;;;;;;4854534;29;20522;-79
2022/06/21 06:28:44;;;;;;;3.97;1.67;;;19.80;34.50;;;;;;4853524;29;20494;-79
2022/06/21 06:31:19;;;;;;;2.63;2.10;;;20.00;33.60;;;;;;4851564;29;20496;-78
2022/06/21 06:33:52;;;;;;;6.23;1.97;;;19.60;33.90;;;;;;4850074;29;20470;-79
2022/06/21 06:36:22;;;;;;;3.60;1.83;;;19.80;33.90;;;;;;4857265;29;20527;-79
2022/06/21 06:38:49;;;;;;;2.40;1.50;;;19.90;32.80;;;;;;4854122;29;20476;-78
2022/06/21 06:41:26;;;;;;;10.13;1.90;;;19.60;34.10;;;;;;4854974;29;20507;-78
2022/06/21 06:43:57;;;;;;;3.93;2.03;;;20.00;33.40;;;;;;4854107;29;20474;-80
2022/06/21 06:46:29;;;;;;;3.03;2.03;;;19.90;33.50;;;;;;4851251;29;20520;-80
2022/06/21 06:49:04;;;;;;;2.13;1.63;;;21.00;31.90;;;;;;4851004;29;20500;-80
2022/06/21 06:51:43;;;;;;;6.73;2.00;;;21.00;30.50;;;;;;4854674;29;20542;-78
2022/06/21 06:54:19;;;;;;;3.63;2.20;;;20.00;33.60;;;;;;4856783;29;20512;-79
2022/06/21 06:56:57;;;;;;;5.10;2.27;;;19.20;34.60;;;;;;4849912;29;20450;-80
2022/06/21 06:59:26;;;;;;;1.87;1.60;;;19.40;35.00;;;;;;4848614;29;20457;-78
2022/06/21 07:01:58;;;;;;;1.77;1.60;;;19.70;34.80;;;;;;4849902;29;20841;-79
2022/06/21 07:04:29;;;;;;;5.40;1.90;;;20.10;33.10;;;;;;4853795;29;21018;-80
2022/06/21 07:07:01;;;;;;;3.20;1.80;;;19.80;34.20;;;;;;4856818;29;20503;-78
2022/06/21 07:09:31;;;;;;;2.60;2.10;;;19.70;34.50;;;;;;4849292;29;20766;-78
2022/06/21 07:12:05;;;;;;;3.40;2.10;;;19.60;34.40;;;;;;4850441;29;20473;-79
2022/06/21 07:14:33;;;;;;;5.90;2.50;;;19.40;34.70;;;;;;4859766;29;20793;-78
2022/06/21 07:17:07;;;;;;;3.33;1.90;;;19.10;35.50;;;;;;4853087;29;20789;-79
2022/06/21 07:19:34;;;;;;;3.60;2.30;;;19.10;35.60;;;;;;4852041;29;21001;-78
2022/06/21 07:22:01;;;;;;;3.53;2.47;;;19.00;36.60;;;;;;4847946;29;20476;-77
2022/06/21 07:24:28;;;;;;;2.13;1.87;;;19.00;37.20;;;;;;4848410;29;21035;-78
2022/06/21 07:27:00;;;;;;;2.20;1.80;;;19.30;36.30;;;;;;4849137;29;20449;-78
2022/06/21 07:29:33;;;;;;;5.60;2.40;;;19.30;36.10;;;;;;4848242;29;20472;-77
2022/06/21 07:32:05;;;;;;;4.37;2.13;;;19.30;36.50;;;;;;4849334;29;20458;-78
2022/06/21 07:34:37;;;;;;;2.27;2.00;;;19.60;35.80;;;;;;4849905;29;20441;-78
2022/06/21 07:37:08;;;;;;;3.47;2.27;;;19.80;35.20;;;;;;4851139;29;20444;-80
2022/06/21 07:39:39;;;;;;;5.10;2.57;;;20.00;34.90;;;;;;4850962;29;20896;-78
2022/06/21 07:42:09;;;;;;;7.40;2.07;;;19.80;35.00;;;;;;4850278;29;20531;-78
2022/06/21 07:44:41;;;;;;;2.23;2.03;;;19.70;35.80;;;;;;4849306;29;20489;-79
2022/06/21 07:47:16;;;;;;;3.97;2.20;;;20.00;34.40;;;;;;4849258;29;20494;-78
2022/06/21 07:49:48;;;;;;;5.10;2.27;;;19.50;35.60;;;;;;4850134;29;20489;-78
2022/06/21 07:52:21;;;;;;;3.60;2.37;;;19.80;35.40;;;;;;4853559;29;20879;-78
2022/06/21 07:54:52;;;;;;;3.23;2.30;;;19.90;35.10;;;;;;4859728;29;20540;-77
2022/06/21 07:57:22;;;;;;;5.00;2.40;;;20.20;34.80;;;;;;4858289;29;20501;-78
2022/06/21 07:59:54;;;;;;;3.87;2.60;;;20.60;34.10;;;;;;4859708;29;20442;-79
2022/06/21 08:08:16;;;;;;;4.53;2.20;;;20.90;34.10;;;;;;4859403;29;20443;-77
2022/06/21 08:10:48;;;;;;;1.93;1.77;;;20.90;33.80;;;;;;4858663;29;20439;-77
2022/06/21 08:13:16;;;;;;;2.20;2.00;;;20.80;35.10;;;;;;4859960;29;20425;-77
2022/06/21 08:15:46;;;;;;;5.87;1.90;;;21.10;34.70;;;;;;4858813;29;20498;-78
2022/06/21 08:18:22;;;;;;;5.67;2.50;;;21.40;34.60;;;;;;4855802;29;20466;-77
2022/06/21 08:20:57;;;;;;;7.50;2.40;;;21.30;35.00;;;;;;4851192;29;20433;-80
2022/06/21 08:23:30;;;;;;;3.40;2.30;;;21.00;35.60;;;;;;4853692;29;20493;-78
2022/06/21 08:26:01;;;;;;;6.37;2.70;;;21.10;35.50;;;;;;4856681;29;20472;-78
2022/06/21 08:28:34;;;;;;;6.60;2.83;;;21.40;35.40;;;;;;4861528;29;20453;-80
2022/06/21 08:31:05;;;;;;;3.73;2.37;;;21.20;36.00;;;;;;4861291;29;20444;-79
2022/06/21 08:33:39;;;;;;;4.53;2.33;;;21.30;35.40;;;;;;4861801;29;20438;-79
2022/06/21 08:36:11;;;;;;;4.30;2.30;;;21.30;35.30;;;;;;4863192;29;20445;-77
2022/06/21 08:38:43;;;;;;;6.37;2.37;;;21.30;35.70;;;;;;4862842;29;20473;-78
2022/06/21 08:41:55;;;;;;;2.93;2.63;;;21.50;35.40;;;;;;4864135;29;20458;-76
2022/06/21 08:48:17;;;;;;;2.80;2.20;;;21.60;35.20;;;;;;4865737;29;20424;-77
2022/06/21 08:51:05;;;;;;;6.00;2.50;;;21.50;35.90;;;;;;4865802;29;20436;-78
2022/06/21 08:53:45;;;;;;;3.43;2.37;;;21.90;35.30;;;;;;4864880;29;20489;-76
2022/06/21 08:56:16;;;;;;;5.13;2.47;;;22.10;34.50;;;;;;4863290;29;20476;-79
2022/06/21 08:58:56;;;;;;;2.60;2.40;;;22.20;34.00;;;;;;4860626;29;20514;-78
2022/06/21 09:01:29;;;;;;;4.20;2.20;;;22.20;33.90;;;;;;4857821;29;20556;-77
2022/06/21 09:04:17;;;;;;;4.23;2.43;;;21.80;33.80;;;;;;4854325;29;20459;-78
2022/06/21 09:07:12;;;;;;;3.80;2.30;;;22.00;34.30;;;;;;4849170;29;20965;-78
2022/06/21 09:09:49;;;;;;;2.73;2.43;;;22.00;33.60;;;;;;4855247;29;20491;-80
2022/06/21 09:12:27;;;;;;;5.20;2.43;;;22.50;32.20;;;;;;4864744;29;20438;-80
2022/06/21 09:15:12;;;;;;;4.50;2.30;;;22.50;31.90;;;;;;4865202;29;20441;-79
2022/06/21 09:17:47;;;;;;;3.83;2.40;;;22.50;32.50;;;;;;4864211;29;20482;-78
2022/06/21 09:20:27;;;;;;;6.20;2.67;;;22.70;31.20;;;;;;4864570;29;20443;-77
2022/06/21 09:23:06;;;;;;;4.03;2.20;;;22.60;31.10;;;;;;4866165;29;20470;-77
2022/06/21 09:25:44;;;;;;;4.80;2.50;;;22.50;30.80;;;;;;4864119;29;20852;-77
2022/06/21 09:28:21;;;;;;;5.90;2.40;;;22.90;31.10;;;;;;4845213;29;20420;-78
2022/06/21 09:30:57;;;;;;;2.63;2.30;;;23.20;31.40;;;;;;4845495;29;20422;-79
2022/06/21 09:33:31;;;;;;;3.30;2.40;;;23.30;30.90;;;;;;4845915;29;20497;-79
2022/06/21 09:36:05;;;;;;;3.67;2.87;;;23.10;31.40;;;;;;4846054;29;20471;-77
2022/06/21 09:38:44;;;;;;;5.27;3.07;;;23.20;31.40;;;;;;4847014;29;20505;-77
2022/06/21 09:41:16;;;;;;;2.93;2.47;;;23.50;30.40;;;;;;4844964;29;20457;-78
2022/06/21 09:43:55;;;;;;;5.37;2.33;;;23.60;30.80;;;;;;4849761;29;20437;-79
2022/06/21 09:46:32;;;;;;;3.47;2.80;;;23.50;30.20;;;;;;4852054;29;20503;-78
2022/06/21 09:49:05;;;;;;;4.17;2.50;;;23.60;29.80;;;;;;4854730;29;20560;-79
2022/06/21 09:51:40;;;;;;;2.70;2.50;;;23.70;29.90;;;;;;4855791;29;20480;-79
2022/06/21 09:54:20;;;;;;;3.80;2.10;;;23.50;30.20;;;;;;4859367;29;20435;-78
2022/06/21 09:56:53;;;;;;;3.90;2.50;;;23.40;30.50;;;;;;4863634;29;20476;-77
2022/06/21 09:59:27;;;;;;;4.30;2.90;;;23.70;29.70;;;;;;4863389;29;20460;-79
2022/06/21 10:02:01;;;;;;;5.67;2.70;;;23.60;29.50;;;;;;4860730;29;20494;-78
2022/06/21 10:04:36;;;;;;;8.40;3.00;;;23.60;30.00;;;;;;4857066;29;20463;-78
2022/06/21 10:07:14;;;;;;;3.23;2.60;;;23.90;29.20;;;;;;4852903;29;20496;-78
2022/06/21 10:09:55;;;;;;;5.70;2.53;;;24.00;29.30;;;;;;4851022;29;20483;-79
2022/06/21 10:12:30;;;;;;;12.27;2.70;;;24.20;29.20;;;;;;4854542;29;20528;-78
2022/06/21 10:15:33;;;;;;;4.83;2.57;;;24.20;29.00;;;;;;4850904;29;20438;-78
2022/06/21 10:18:25;;;;;;;4.00;2.53;;;24.10;29.10;;;;;;4846285;29;20436;-77
2022/06/21 10:21:08;;;;;;;7.00;2.83;;;24.30;29.20;;;;;;4855753;29;20458;-79
2022/06/21 10:24:12;;;;;;;2.80;2.60;;;24.50;28.60;;;;;;4849331;29;20541;-78
2022/06/21 10:26:57;;;;;;;6.60;3.53;;;24.30;29.30;;;;;;4851931;29;20425;-77
2022/06/21 10:29:39;;;;;;;7.50;3.43;;;24.50;29.80;;;;;;4855572;29;20433;-80
2022/06/21 10:32:26;;;;;;;3.93;2.93;;;24.80;29.10;;;;;;4862594;29;20438;-80
2022/06/21 10:35:13;;;;;;;4.57;2.43;;;25.10;28.40;;;;;;4854352;29;20495;-78
2022/06/21 10:37:57;;;;;;;3.03;2.73;;;25.20;27.40;;;;;;4857578;29;20513;-79
2022/06/21 10:40:42;;;;;;;3.23;2.93;;;25.10;28.00;;;;;;4861801;29;20457;-79
2022/06/21 10:43:33;;;;;;;3.03;2.53;;;25.00;27.90;;;;;;4847579;29;20803;-78
2022/06/21 10:46:04;;;;;;;8.93;2.93;;;25.00;27.90;;;;;;4826907;29;20486;-77
2022/06/21 10:49:07;;;;;;;3.20;2.70;;;25.00;27.60;;;;;;4843985;29;20527;-78
2022/06/21 10:51:56;;;;;;;6.77;2.80;;;24.80;28.30;;;;;;4843264;29;20454;-77
2022/06/21 10:54:59;;;;;;;9.50;3.00;;;24.90;28.70;;;;;;4843482;29;20467;-78
2022/06/21 10:57:38;;;;;;;5.17;2.80;;;25.10;28.40;;;;;;4844678;29;20567;-77
2022/06/21 11:03:28;;;;;;;3.90;2.90;;;25.20;28.10;;;;;;4844489;29;20754;-78
2022/06/21 11:06:05;;;;;;;4.23;2.90;;;25.30;28.00;;;;;;4838613;29;20440;-78
2022/06/21 11:08:42;;;;;;;5.23;3.10;;;25.50;28.30;;;;;;4844080;29;20425;-77
2022/06/21 11:11:15;;;;;;;5.90;3.20;;;25.70;27.80;;;;;;4843734;29;20449;-77
2022/06/21 11:13:48;;;;;;;6.73;2.90;;;25.50;27.80;;;;;;4843466;29;20476;-79
2022/06/21 11:16:37;;;;;;;9.17;3.53;;;25.40;28.00;;;;;;4844850;29;20498;-79
2022/06/21 11:19:14;;;;;;;3.60;2.90;;;25.60;27.80;;;;;;4843168;29;20565;-78
2022/06/21 11:21:56;;;;;;;5.90;3.50;;;26.00;27.30;;;;;;4842978;29;20487;-78
2022/06/21 11:24:33;;;;;;;3.10;2.80;;;26.20;27.10;;;;;;4843690;29;20457;-78
2022/06/21 11:27:09;;;;;;;4.80;3.40;;;26.20;27.10;;;;;;4843302;29;20490;-79
2022/06/21 11:29:41;;;;;;;7.30;3.13;;;26.50;26.30;;;;;;4844695;29;20572;-78
2022/06/21 11:32:22;;;;;;;5.13;3.10;;;26.60;25.80;;;;;;4846198;29;20480;-79
2022/06/21 11:34:57;;;;;;;3.97;3.57;;;26.40;26.50;;;;;;4848498;29;20474;-78
2022/06/21 11:37:37;;;;;;;5.80;3.37;;;26.60;26.10;;;;;;4846583;29;21112;-78
2022/06/21 11:40:22;;;;;;;4.00;3.20;;;26.90;26.10;;;;;;4855437;29;20461;-78
2022/06/21 11:42:53;;;;;;;6.80;3.53;;;26.50;26.90;;;;;;4859448;29;20472;-78
2022/06/21 11:45:44;;;;;;;5.53;2.90;;;26.20;27.00;;;;;;4851568;29;20459;-77
2022/06/21 11:48:46;;;;;;;8.07;3.60;;;26.20;27.00;;;;;;4848196;29;20484;-77
2022/06/21 11:51:34;;;;;;;3.40;2.97;;;25.90;27.70;;;;;;4848487;29;20462;-79
2022/06/21 11:54:03;;;;;;;3.60;3.20;;;26.10;27.60;;;;;;4853273;29;20445;-79
2022/06/21 11:56:43;;;;;;;3.40;3.10;;;26.30;27.30;;;;;;4852947;29;20503;-78
2022/06/21 11:59:18;;;;;;;4.77;3.53;;;26.60;26.90;;;;;;4851549;29;20510;-78
2022/06/21 12:01:53;;;;;;;6.37;4.20;;;26.40;27.10;;;;;;4849220;29;20526;-77
2022/06/21 12:04:30;;;;;;;3.90;3.30;;;26.70;26.70;;;;;;4845692;29;20455;-77
2022/06/21 12:07:07;;;;;;;7.20;3.47;;;26.60;26.60;;;;;;4846027;29;20782;-78
2022/06/21 12:09:39;;;;;;;3.77;3.43;;;26.50;26.80;;;;;;4848718;29;20474;-78
2022/06/21 12:12:22;;;;;;;5.63;3.53;;;26.60;26.90;;;;;;4849171;29;20540;-78
2022/06/21 12:15:02;;;;;;;7.10;4.20;;;26.30;27.10;;;;;;4849776;29;20532;-78
2022/06/21 12:17:43;;;;;;;4.73;3.30;;;26.30;27.40;;;;;;4849891;29;20481;-77
2022/06/21 12:20:18;;;;;;;4.60;3.53;;;26.30;27.70;;;;;;4852863;29;20499;-78
2022/06/21 12:22:49;;;;;;;5.17;3.57;;;26.60;27.40;;;;;;4853040;29;20894;-78
2022/06/21 12:25:18;;;;;;;4.10;3.67;;;26.80;26.70;;;;;;4852950;29;20440;-78
2022/06/21 12:27:46;;;;;;;4.77;3.80;;;26.60;27.30;;;;;;4851935;29;21002;-80
2022/06/21 12:30:19;;;;;;;4.53;2.73;;;26.60;27.30;;;;;;4849665;29;20487;-77
2022/06/21 12:32:48;;;;;;;7.00;3.50;;;26.80;27.20;;;;;;4853482;29;20645;-77
2022/06/21 12:35:19;;;;;;;5.80;3.60;;;27.10;26.40;;;;;;4862307;29;20485;-78
2022/06/21 12:37:49;;;;;;;4.13;3.73;;;27.20;26.60;;;;;;4865079;29;20505;-77
2022/06/21 12:40:25;;;;;;;10.80;3.80;;;27.90;25.90;;;;;;4863853;29;20480;-77
2022/06/21 12:43:06;;;;;;;4.33;3.80;;;27.60;25.70;;;;;;4856404;29;20473;-78
2022/06/21 12:45:46;;;;;;;6.00;3.90;;;27.70;25.80;;;;;;4863257;29;20600;-79
2022/06/21 12:48:26;;;;;;;7.43;4.37;;;28.00;25.90;;;;;;4856339;29;20454;-78
2022/06/21 12:51:04;;;;;;;4.47;4.07;;;27.80;26.50;;;;;;4854805;29;20504;-78
2022/06/21 12:54:05;;;;;;;4.00;3.60;;;27.70;26.10;;;;;;4853392;29;20473;-77
2022/06/21 12:56:50;;;;;;;4.83;3.73;;;27.20;26.70;;;;;;4860754;29;20473;-78
2022/06/21 12:59:52;;;;;;;7.30;4.00;;;27.10;27.20;;;;;;4862968;29;20536;-77
2022/06/21 13:02:36;;;;;;;4.10;3.80;;;27.10;27.60;;;;;;4833252;29;20554;-79
2022/06/21 13:05:20;;;;;;;4.83;3.70;;;27.30;27.10;;;;;;4850933;29;20485;-78
2022/06/21 13:08:31;;;;;;;4.00;3.60;;;27.70;26.40;;;;;;4850841;29;20455;-78
2022/06/21 13:11:08;;;;;;;5.33;3.67;;;27.90;25.90;;;;;;4847014;29;20479;-77
2022/06/21 13:13:46;;;;;;;4.60;3.77;;;28.00;25.90;;;;;;4852155;29;20466;-79
2022/06/21 13:16:29;;;;;;;7.50;4.13;;;27.70;25.80;;;;;;4848939;29;20462;-77
2022/06/21 13:19:31;;;;;;;5.13;3.60;;;27.90;25.90;;;;;;4847589;29;20507;-77
2022/06/21 13:22:27;;;;;;;4.03;3.60;;;27.60;26.40;;;;;;4846874;29;20450;-77
2022/06/21 13:25:04;;;;;;;5.83;4.70;;;27.60;26.70;;;;;;4846847;29;20505;-77
2022/06/21 13:27:51;;;;;;;9.63;4.10;;;27.60;26.50;;;;;;4859352;29;20533;-78
2022/06/21 13:30:33;;;;;;;3.93;3.57;;;28.20;26.00;;;;;;4864994;29;20497;-78
2022/06/21 13:33:10;;;;;;;5.60;3.50;;;28.70;25.80;;;;;;4866366;29;20447;-77
2022/06/21 13:35:47;;;;;;;6.17;3.63;;;28.80;25.40;;;;;;4869662;29;20807;-78
2022/06/21 13:38:24;;;;;;;3.80;3.50;;;28.50;26.20;;;;;;4865760;29;20508;-77
2022/06/21 13:40:57;;;;;;;5.10;3.87;;;28.60;25.80;;;;;;4865046;29;20480;-77